sensor_id;sensor_type;location;lat;lon;timestamp;temperature;humidity
21481;DHT22;10902;48.158;8.634;2023-12-20T00:01:40;4.10;99.90
21481;DHT22;10902;48.158;8.634;2023-12-20T00:04:25;4.10;99.90
21481;DHT22;10902;48.158;8.634;2023-12-20T00:07:11;4.10;99.90
21481;DHT22;10902;48.158;8.634;2023-12-20T00:09:56;4.00;99.90
21481;DHT22;10902;48.158;8.634;2023-12-20T00:12:42;4.00;99.90
21481;DHT22;10902;48.158;8.634;2023-12-20T00:15:27;4.00;99.90
21481;DHT22;10902;48.158;8.634;2023-12-20T00:18:13;4.00;99.90
21481;DHT22;10902;48.158;8.634;2023-12-20T00:20:59;4.00;99.90
21481;DHT22;10902;48.158;8.634;2023-12-20T00:23:44;4.00;99.90
21481;DHT22;10902;48.158;8.634;2023-12-20T00:26:30;3.90;99.90
21481;DHT22;10902;48.158;8.634;2023-12-20T00:29:15;3.90;99.90
21481;DHT22;10902;48.158;8.634;2023-12-20T00:32:01;3.90;99.90
21481;DHT22;10902;48.158;8.634;2023-12-20T00:34:46;3.90;99.90
21481;DHT22;10902;48.158;8.634;2023-12-20T00:37:32;3.90;99.90
21481;DHT22;10902;48.158;8.634;2023-12-20T00:40:18;3.80;99.90
21481;DHT22;10902;48.158;8.634;2023-12-20T00:43:03;3.80;99.90
21481;DHT22;10902;48.158;8.634;2023-12-20T00:45:49;3.80;99.90
21481;DHT22;10902;48.158;8.634;2023-12-20T00:48:35;3.80;99.90
21481;DHT22;10902;48.158;8.634;2023-12-20T00:51:20;3.80;99.90
21481;DHT22;10902;48.158;8.634;2023-12-20T00:54:06;3.80;99.90
21481;DHT22;10902;48.158;8.634;2023-12-20T00:56:51;3.80;99.90
21481;DHT22;10902;48.158;8.634;2023-12-20T00:59:37;3.80;99.90
21481;DHT22;10902;48.158;8.634;2023-12-20T01:02:22;3.80;99.90
21481;DHT22;10902;48.158;8.634;2023-12-20T01:05:08;3.80;99.90
21481;DHT22;10902;48.158;8.634;2023-12-20T01:07:54;3.70;99.90
21481;DHT22;10902;48.158;8.634;2023-12-20T01:10:40;3.60;99.90
21481;DHT22;10902;48.158;8.634;2023-12-20T01:13:25;3.60;99.90
21481;DHT22;10902;48.158;8.634;2023-12-20T01:16:12;3.60;99.90
21481;DHT22;10902;48.158;8.634;2023-12-20T01:18:57;3.70;99.90
21481;DHT22;10902;48.158;8.634;2023-12-20T01:21:44;3.70;99.90
21481;DHT22;10902;48.158;8.634;2023-12-20T01:24:29;3.70;99.90
21481;DHT22;10902;48.158;8.634;2023-12-20T01:27:15;3.80;99.90
21481;DHT22;10902;48.158;8.634;2023-12-20T01:30:00;3.80;99.90
21481;DHT22;10902;48.158;8.634;2023-12-20T01:32:46;3.90;99.90
21481;DHT22;10902;48.158;8.634;2023-12-20T01:35:32;3.80;99.90
21481;DHT22;10902;48.158;8.634;2023-12-20T01:38:17;3.80;99.90
21481;DHT22;10902;48.158;8.634;2023-12-20T01:41:05;3.70;99.90
21481;DHT22;10902;48.158;8.634;2023-12-20T01:43:51;3.70;99.90
21481;DHT22;10902;48.158;8.634;2023-12-20T01:46:38;3.60;99.90
21481;DHT22;10902;48.158;8.634;2023-12-20T01:49:24;3.60;99.90
21481;DHT22;10902;48.158;8.634;2023-12-20T01:52:10;3.60;99.90
21481;DHT22;10902;48.158;8.634;2023-12-20T01:54:56;3.60;99.90
21481;DHT22;10902;48.158;8.634;2023-12-20T01:57:48;3.60;99.90
21481;DHT22;10902;48.158;8.634;2023-12-20T02:00:34;3.50;99.90
21481;DHT22;10902;48.158;8.634;2023-12-20T02:03:20;3.50;99.90
21481;DHT22;10902;48.158;8.634;2023-12-20T02:06:07;3.50;99.90
21481;DHT22;10902;48.158;8.634;2023-12-20T02:08:53;3.50;99.90
21481;DHT22;10902;48.158;8.634;2023-12-20T02:11:39;3.50;99.90
21481;DHT22;10902;48.158;8.634;2023-12-20T02:14:25;3.50;99.90
21481;DHT22;10902;48.158;8.634;2023-12-20T02:17:11;3.70;99.90
21481;DHT22;10902;48.158;8.634;2023-12-20T02:19:57;3.80;99.90
21481;DHT22;10902;48.158;8.634;2023-12-20T02:22:42;3.90;99.90
21481;DHT22;10902;48.158;8.634;2023-12-20T02:25:28;3.80;99.90
21481;DHT22;10902;48.158;8.634;2023-12-20T02:28:13;3.80;99.90
21481;DHT22;10902;48.158;8.634;2023-12-20T02:30:59;3.80;99.90
21481;DHT22;10902;48.158;8.634;2023-12-20T02:33:45;3.70;99.90
21481;DHT22;10902;48.158;8.634;2023-12-20T02:36:30;3.80;99.90
21481;DHT22;10902;48.158;8.634;2023-12-20T02:39:18;3.70;99.90
21481;DHT22;10902;48.158;8.634;2023-12-20T02:42:04;3.70;99.90
21481;DHT22;10902;48.158;8.634;2023-12-20T02:44:50;3.70;99.90
21481;DHT22;10902;48.158;8.634;2023-12-20T02:47:35;3.70;99.90
21481;DHT22;10902;48.158;8.634;2023-12-20T02:50:21;3.80;99.90
21481;DHT22;10902;48.158;8.634;2023-12-20T02:53:07;3.80;99.90
21481;DHT22;10902;48.158;8.634;2023-12-20T02:55:52;3.70;99.90
21481;DHT22;10902;48.158;8.634;2023-12-20T02:58:38;3.80;99.90
21481;DHT22;10902;48.158;8.634;2023-12-20T03:01:23;3.70;99.90
21481;DHT22;10902;48.158;8.634;2023-12-20T03:04:10;3.70;99.90
21481;DHT22;10902;48.158;8.634;2023-12-20T03:06:55;3.70;99.90
21481;DHT22;10902;48.158;8.634;2023-12-20T03:09:41;3.70;99.90
21481;DHT22;10902;48.158;8.634;2023-12-20T03:12:26;3.70;99.90
21481;DHT22;10902;48.158;8.634;2023-12-20T03:15:12;3.80;99.90
21481;DHT22;10902;48.158;8.634;2023-12-20T03:17:57;3.80;99.90
21481;DHT22;10902;48.158;8.634;2023-12-20T03:20:44;3.80;99.90
21481;DHT22;10902;48.158;8.634;2023-12-20T03:23:30;3.80;99.90
21481;DHT22;10902;48.158;8.634;2023-12-20T03:26:17;3.80;99.90
21481;DHT22;10902;48.158;8.634;2023-12-20T03:29:04;3.80;99.90
21481;DHT22;10902;48.158;8.634;2023-12-20T03:31:49;3.80;99.90
21481;DHT22;10902;48.158;8.634;2023-12-20T03:34:35;3.80;99.90
21481;DHT22;10902;48.158;8.634;2023-12-20T03:37:22;3.80;99.90
21481;DHT22;10902;48.158;8.634;2023-12-20T03:40:08;3.80;99.90
21481;DHT22;10902;48.158;8.634;2023-12-20T03:42:54;3.80;99.90
21481;DHT22;10902;48.158;8.634;2023-12-20T03:45:39;3.80;99.90
21481;DHT22;10902;48.158;8.634;2023-12-20T03:48:25;3.80;99.90
21481;DHT22;10902;48.158;8.634;2023-12-20T03:51:11;3.80;99.90
21481;DHT22;10902;48.158;8.634;2023-12-20T03:53:56;3.70;99.90
21481;DHT22;10902;48.158;8.634;2023-12-20T03:56:42;3.70;99.90
21481;DHT22;10902;48.158;8.634;2023-12-20T03:59:28;3.70;99.90
21481;DHT22;10902;48.158;8.634;2023-12-20T04:02:13;3.70;99.90
21481;DHT22;10902;48.158;8.634;2023-12-20T04:04:59;3.70;99.90
21481;DHT22;10902;48.158;8.634;2023-12-20T04:07:44;3.70;99.90
21481;DHT22;10902;48.158;8.634;2023-12-20T04:10:30;3.70;99.90
21481;DHT22;10902;48.158;8.634;2023-12-20T04:13:16;3.60;99.90
21481;DHT22;10902;48.158;8.634;2023-12-20T04:16:01;3.70;99.90
21481;DHT22;10902;48.158;8.634;2023-12-20T04:18:47;3.60;99.90
21481;DHT22;10902;48.158;8.634;2023-12-20T04:21:32;3.60;99.90
21481;DHT22;10902;48.158;8.634;2023-12-20T04:24:18;3.60;99.90
21481;DHT22;10902;48.158;8.634;2023-12-20T04:27:04;3.60;99.90
21481;DHT22;10902;48.158;8.634;2023-12-20T04:29:49;3.50;99.90
21481;DHT22;10902;48.158;8.634;2023-12-20T04:32:35;3.50;99.90
21481;DHT22;10902;48.158;8.634;2023-12-20T04:35:20;3.50;99.90
21481;DHT22;10902;48.158;8.634;2023-12-20T04:38:06;3.50;99.90
21481;DHT22;10902;48.158;8.634;2023-12-20T04:40:52;3.50;99.90
21481;DHT22;10902;48.158;8.634;2023-12-20T04:43:37;3.50;99.90
21481;DHT22;10902;48.158;8.634;2023-12-20T04:46:23;3.40;99.90
21481;DHT22;10902;48.158;8.634;2023-12-20T04:49:09;3.40;99.90
21481;DHT22;10902;48.158;8.634;2023-12-20T04:51:54;3.40;99.90
21481;DHT22;10902;48.158;8.634;2023-12-20T04:54:40;3.40;99.90
21481;DHT22;10902;48.158;8.634;2023-12-20T04:57:26;3.30;99.90
21481;DHT22;10902;48.158;8.634;2023-12-20T05:00:12;3.30;99.90
21481;DHT22;10902;48.158;8.634;2023-12-20T05:02:59;3.30;99.90
21481;DHT22;10902;48.158;8.634;2023-12-20T05:05:45;3.30;99.90
21481;DHT22;10902;48.158;8.634;2023-12-20T05:08:30;3.30;99.90
21481;DHT22;10902;48.158;8.634;2023-12-20T05:11:16;3.30;99.90
21481;DHT22;10902;48.158;8.634;2023-12-20T05:14:02;3.20;99.90
21481;DHT22;10902;48.158;8.634;2023-12-20T05:16:47;3.20;99.90
21481;DHT22;10902;48.158;8.634;2023-12-20T05:19:33;3.10;99.90
21481;DHT22;10902;48.158;8.634;2023-12-20T05:22:20;3.10;99.90
21481;DHT22;10902;48.158;8.634;2023-12-20T05:25:06;3.10;99.90
21481;DHT22;10902;48.158;8.634;2023-12-20T05:27:51;3.00;99.90
21481;DHT22;10902;48.158;8.634;2023-12-20T05:30:37;3.00;99.90
21481;DHT22;10902;48.158;8.634;2023-12-20T05:33:23;3.00;99.90
21481;DHT22;10902;48.158;8.634;2023-12-20T05:36:10;3.00;99.90
21481;DHT22;10902;48.158;8.634;2023-12-20T05:38:56;3.00;99.90
21481;DHT22;10902;48.158;8.634;2023-12-20T05:41:42;3.00;99.90
21481;DHT22;10902;48.158;8.634;2023-12-20T05:44:27;3.00;99.90
21481;DHT22;10902;48.158;8.634;2023-12-20T05:47:13;3.00;99.90
21481;DHT22;10902;48.158;8.634;2023-12-20T05:49:59;3.00;99.90
21481;DHT22;10902;48.158;8.634;2023-12-20T05:52:44;3.00;99.90
21481;DHT22;10902;48.158;8.634;2023-12-20T05:55:30;3.00;99.90
21481;DHT22;10902;48.158;8.634;2023-12-20T05:58:15;3.00;99.90
21481;DHT22;10902;48.158;8.634;2023-12-20T06:01:04;3.00;99.90
21481;DHT22;10902;48.158;8.634;2023-12-20T06:03:49;3.00;99.90
21481;DHT22;10902;48.158;8.634;2023-12-20T06:06:41;2.90;99.90
21481;DHT22;10902;48.158;8.634;2023-12-20T06:09:27;2.90;99.90
21481;DHT22;10902;48.158;8.634;2023-12-20T06:12:13;2.90;99.90
21481;DHT22;10902;48.158;8.634;2023-12-20T06:14:58;3.00;99.90
21481;DHT22;10902;48.158;8.634;2023-12-20T06:17:44;2.90;99.90
21481;DHT22;10902;48.158;8.634;2023-12-20T06:20:29;3.00;99.90
21481;DHT22;10902;48.158;8.634;2023-12-20T06:23:15;3.00;99.90
21481;DHT22;10902;48.158;8.634;2023-12-20T06:26:01;2.90;99.90
21481;DHT22;10902;48.158;8.634;2023-12-20T06:28:46;2.90;99.90
21481;DHT22;10902;48.158;8.634;2023-12-20T06:31:32;3.00;99.90
21481;DHT22;10902;48.158;8.634;2023-12-20T06:34:18;3.00;99.90
21481;DHT22;10902;48.158;8.634;2023-12-20T06:37:03;3.00;99.90
21481;DHT22;10902;48.158;8.634;2023-12-20T06:39:50;3.00;99.90
21481;DHT22;10902;48.158;8.634;2023-12-20T06:42:36;3.00;99.90
21481;DHT22;10902;48.158;8.634;2023-12-20T06:45:21;3.00;99.90
21481;DHT22;10902;48.158;8.634;2023-12-20T06:48:07;3.00;99.90
21481;DHT22;10902;48.158;8.634;2023-12-20T06:50:52;3.10;99.90
21481;DHT22;10902;48.158;8.634;2023-12-20T06:53:38;3.00;99.90
21481;DHT22;10902;48.158;8.634;2023-12-20T06:56:24;3.10;99.90
21481;DHT22;10902;48.158;8.634;2023-12-20T06:59:09;3.10;99.90
21481;DHT22;10902;48.158;8.634;2023-12-20T07:01:55;3.10;99.90
21481;DHT22;10902;48.158;8.634;2023-12-20T07:04:41;3.10;99.90
21481;DHT22;10902;48.158;8.634;2023-12-20T07:07:27;3.10;99.90
21481;DHT22;10902;48.158;8.634;2023-12-20T07:10:13;3.10;99.90
21481;DHT22;10902;48.158;8.634;2023-12-20T07:12:59;3.10;99.90
21481;DHT22;10902;48.158;8.634;2023-12-20T07:15:44;3.00;99.90
21481;DHT22;10902;48.158;8.634;2023-12-20T07:18:30;3.00;99.90
21481;DHT22;10902;48.158;8.634;2023-12-20T07:21:15;3.00;99.90
21481;DHT22;10902;48.158;8.634;2023-12-20T07:24:01;3.00;99.90
21481;DHT22;10902;48.158;8.634;2023-12-20T07:26:46;3.00;99.90
21481;DHT22;10902;48.158;8.634;2023-12-20T07:29:32;3.00;99.90
21481;DHT22;10902;48.158;8.634;2023-12-20T07:32:19;3.00;99.90
21481;DHT22;10902;48.158;8.634;2023-12-20T07:35:04;3.00;99.90
21481;DHT22;10902;48.158;8.634;2023-12-20T07:37:50;3.00;99.90
21481;DHT22;10902;48.158;8.634;2023-12-20T07:40:36;3.10;99.90
21481;DHT22;10902;48.158;8.634;2023-12-20T07:43:22;3.10;99.90
21481;DHT22;10902;48.158;8.634;2023-12-20T07:46:08;3.10;99.90
21481;DHT22;10902;48.158;8.634;2023-12-20T07:48:54;3.10;99.90
21481;DHT22;10902;48.158;8.634;2023-12-20T07:51:39;3.20;99.90
21481;DHT22;10902;48.158;8.634;2023-12-20T07:54:25;3.30;99.90
21481;DHT22;10902;48.158;8.634;2023-12-20T07:57:11;3.20;99.90
21481;DHT22;10902;48.158;8.634;2023-12-20T07:59:57;3.20;99.90
21481;DHT22;10902;48.158;8.634;2023-12-20T08:02:42;3.20;99.90
21481;DHT22;10902;48.158;8.634;2023-12-20T08:05:28;3.20;99.90
21481;DHT22;10902;48.158;8.634;2023-12-20T08:08:14;3.20;99.90
21481;DHT22;10902;48.158;8.634;2023-12-20T08:10:59;3.20;99.90
21481;DHT22;10902;48.158;8.634;2023-12-20T08:13:50;3.30;99.90
21481;DHT22;10902;48.158;8.634;2023-12-20T08:16:40;3.20;99.90
21481;DHT22;10902;48.158;8.634;2023-12-20T08:19:26;3.30;99.90
21481;DHT22;10902;48.158;8.634;2023-12-20T08:22:15;3.40;99.90
21481;DHT22;10902;48.158;8.634;2023-12-20T08:25:01;3.40;99.90
21481;DHT22;10902;48.158;8.634;2023-12-20T08:27:46;3.40;99.90
21481;DHT22;10902;48.158;8.634;2023-12-20T08:30:32;3.40;99.90
21481;DHT22;10902;48.158;8.634;2023-12-20T08:33:18;3.40;99.90
21481;DHT22;10902;48.158;8.634;2023-12-20T08:36:04;3.40;99.90
21481;DHT22;10902;48.158;8.634;2023-12-20T08:38:51;3.30;99.90
21481;DHT22;10902;48.158;8.634;2023-12-20T08:41:37;3.30;99.90
21481;DHT22;10902;48.158;8.634;2023-12-20T08:44:29;3.30;99.90
21481;DHT22;10902;48.158;8.634;2023-12-20T08:47:23;3.40;99.90
21481;DHT22;10902;48.158;8.634;2023-12-20T08:50:09;3.30;99.90
21481;DHT22;10902;48.158;8.634;2023-12-20T08:52:55;3.30;99.90
21481;DHT22;10902;48.158;8.634;2023-12-20T08:55:41;3.40;99.90
21481;DHT22;10902;48.158;8.634;2023-12-20T08:58:28;3.40;99.90
21481;DHT22;10902;48.158;8.634;2023-12-20T09:01:14;3.60;99.90
21481;DHT22;10902;48.158;8.634;2023-12-20T09:04:00;3.70;99.90
21481;DHT22;10902;48.158;8.634;2023-12-20T09:06:45;3.80;99.90
21481;DHT22;10902;48.158;8.634;2023-12-20T09:09:31;3.70;99.90
21481;DHT22;10902;48.158;8.634;2023-12-20T09:12:18;3.60;99.90
21481;DHT22;10902;48.158;8.634;2023-12-20T09:15:04;3.70;99.90
21481;DHT22;10902;48.158;8.634;2023-12-20T09:17:50;3.80;99.90
21481;DHT22;10902;48.158;8.634;2023-12-20T09:20:36;3.80;99.90
21481;DHT22;10902;48.158;8.634;2023-12-20T09:23:28;3.80;99.90
21481;DHT22;10902;48.158;8.634;2023-12-20T09:26:14;3.90;99.90
21481;DHT22;10902;48.158;8.634;2023-12-20T09:29:00;4.00;99.90
21481;DHT22;10902;48.158;8.634;2023-12-20T09:31:46;4.10;99.90
21481;DHT22;10902;48.158;8.634;2023-12-20T09:34:32;4.00;99.90
21481;DHT22;10902;48.158;8.634;2023-12-20T09:37:17;4.00;99.90
21481;DHT22;10902;48.158;8.634;2023-12-20T09:40:03;3.80;99.90
21481;DHT22;10902;48.158;8.634;2023-12-20T09:43:08;3.70;99.90
21481;DHT22;10902;48.158;8.634;2023-12-20T09:45:55;3.70;99.90
21481;DHT22;10902;48.158;8.634;2023-12-20T09:48:44;3.60;99.90
21481;DHT22;10902;48.158;8.634;2023-12-20T09:51:31;3.50;99.90
21481;DHT22;10902;48.158;8.634;2023-12-20T09:54:17;3.50;99.90
21481;DHT22;10902;48.158;8.634;2023-12-20T09:57:04;3.40;99.90
21481;DHT22;10902;48.158;8.634;2023-12-20T09:59:50;3.30;99.90
21481;DHT22;10902;48.158;8.634;2023-12-20T10:02:38;3.50;99.90
21481;DHT22;10902;48.158;8.634;2023-12-20T10:05:32;3.60;99.90
21481;DHT22;10902;48.158;8.634;2023-12-20T10:08:21;3.70;99.90
21481;DHT22;10902;48.158;8.634;2023-12-20T10:11:07;3.80;99.90
21481;DHT22;10902;48.158;8.634;2023-12-20T10:13:59;3.80;99.90
21481;DHT22;10902;48.158;8.634;2023-12-20T10:16:44;3.90;99.90
21481;DHT22;10902;48.158;8.634;2023-12-20T10:19:31;4.10;99.90
21481;DHT22;10902;48.158;8.634;2023-12-20T10:22:16;3.90;99.90
21481;DHT22;10902;48.158;8.634;2023-12-20T10:25:02;4.10;99.90
21481;DHT22;10902;48.158;8.634;2023-12-20T10:27:49;4.20;99.90
21481;DHT22;10902;48.158;8.634;2023-12-20T10:30:34;4.50;99.90
21481;DHT22;10902;48.158;8.634;2023-12-20T10:33:25;4.50;99.90
21481;DHT22;10902;48.158;8.634;2023-12-20T10:36:11;4.80;99.90
21481;DHT22;10902;48.158;8.634;2023-12-20T10:38:59;4.80;99.90
21481;DHT22;10902;48.158;8.634;2023-12-20T10:41:45;5.50;99.90
21481;DHT22;10902;48.158;8.634;2023-12-20T10:44:31;5.50;99.90
21481;DHT22;10902;48.158;8.634;2023-12-20T10:47:17;6.40;99.90
21481;DHT22;10902;48.158;8.634;2023-12-20T10:50:05;6.80;99.90
21481;DHT22;10902;48.158;8.634;2023-12-20T10:52:51;8.20;99.90
21481;DHT22;10902;48.158;8.634;2023-12-20T10:55:41;8.20;99.90
21481;DHT22;10902;48.158;8.634;2023-12-20T10:58:29;7.80;99.90
21481;DHT22;10902;48.158;8.634;2023-12-20T11:01:19;7.70;99.90
21481;DHT22;10902;48.158;8.634;2023-12-20T11:04:08;8.10;99.90
21481;DHT22;10902;48.158;8.634;2023-12-20T11:07:00;7.20;99.90
21481;DHT22;10902;48.158;8.634;2023-12-20T11:10:23;7.20;99.90
21481;DHT22;10902;48.158;8.634;2023-12-20T11:13:21;8.40;99.90
21481;DHT22;10902;48.158;8.634;2023-12-20T11:16:08;9.50;99.90
21481;DHT22;10902;48.158;8.634;2023-12-20T11:18:54;9.70;99.90
21481;DHT22;10902;48.158;8.634;2023-12-20T11:21:40;9.00;99.90
21481;DHT22;10902;48.158;8.634;2023-12-20T11:24:26;6.80;99.90
21481;DHT22;10902;48.158;8.634;2023-12-20T11:27:13;7.10;99.90
21481;DHT22;10902;48.158;8.634;2023-12-20T11:29:59;6.90;99.90
21481;DHT22;10902;48.158;8.634;2023-12-20T11:32:46;7.70;99.90
21481;DHT22;10902;48.158;8.634;2023-12-20T11:35:32;6.30;99.90
21481;DHT22;10902;48.158;8.634;2023-12-20T11:38:20;6.20;99.90
21481;DHT22;10902;48.158;8.634;2023-12-20T11:41:06;6.40;99.90
21481;DHT22;10902;48.158;8.634;2023-12-20T11:43:55;6.90;99.90
21481;DHT22;10902;48.158;8.634;2023-12-20T11:46:41;7.00;99.90
21481;DHT22;10902;48.158;8.634;2023-12-20T11:49:27;7.60;99.90
21481;DHT22;10902;48.158;8.634;2023-12-20T11:52:14;8.10;99.90
21481;DHT22;10902;48.158;8.634;2023-12-20T11:55:00;6.90;99.90
21481;DHT22;10902;48.158;8.634;2023-12-20T11:57:45;5.90;99.90
21481;DHT22;10902;48.158;8.634;2023-12-20T12:00:31;5.40;99.90
21481;DHT22;10902;48.158;8.634;2023-12-20T12:03:17;5.30;99.90
21481;DHT22;10902;48.158;8.634;2023-12-20T12:06:03;5.20;99.90
21481;DHT22;10902;48.158;8.634;2023-12-20T12:08:49;5.10;99.90
21481;DHT22;10902;48.158;8.634;2023-12-20T12:11:36;5.00;99.90
21481;DHT22;10902;48.158;8.634;2023-12-20T12:14:21;4.80;99.90
21481;DHT22;10902;48.158;8.634;2023-12-20T12:17:14;4.70;99.90
21481;DHT22;10902;48.158;8.634;2023-12-20T12:20:04;5.50;99.90
21481;DHT22;10902;48.158;8.634;2023-12-20T12:23:02;6.20;99.90
21481;DHT22;10902;48.158;8.634;2023-12-20T12:25:48;6.00;99.90
21481;DHT22;10902;48.158;8.634;2023-12-20T12:28:34;6.10;99.90
21481;DHT22;10902;48.158;8.634;2023-12-20T12:31:20;4.90;99.90
21481;DHT22;10902;48.158;8.634;2023-12-20T12:34:06;4.20;99.90
21481;DHT22;10902;48.158;8.634;2023-12-20T12:36:51;4.30;99.90
21481;DHT22;10902;48.158;8.634;2023-12-20T12:39:37;4.60;99.90
21481;DHT22;10902;48.158;8.634;2023-12-20T12:42:24;4.30;99.90
21481;DHT22;10902;48.158;8.634;2023-12-20T12:45:14;3.90;99.90
21481;DHT22;10902;48.158;8.634;2023-12-20T12:47:59;3.70;99.90
21481;DHT22;10902;48.158;8.634;2023-12-20T12:50:46;3.40;99.90
21481;DHT22;10902;48.158;8.634;2023-12-20T12:53:31;3.40;99.90
21481;DHT22;10902;48.158;8.634;2023-12-20T12:56:17;3.30;99.90
21481;DHT22;10902;48.158;8.634;2023-12-20T12:59:03;3.20;99.90
21481;DHT22;10902;48.158;8.634;2023-12-20T13:01:48;3.20;99.90
21481;DHT22;10902;48.158;8.634;2023-12-20T13:04:34;3.30;99.90
21481;DHT22;10902;48.158;8.634;2023-12-20T13:07:19;3.30;99.90
21481;DHT22;10902;48.158;8.634;2023-12-20T13:10:05;3.30;99.90
21481;DHT22;10902;48.158;8.634;2023-12-20T13:12:51;3.40;99.90
21481;DHT22;10902;48.158;8.634;2023-12-20T13:15:37;3.40;99.90
21481;DHT22;10902;48.158;8.634;2023-12-20T13:18:22;3.30;99.90
21481;DHT22;10902;48.158;8.634;2023-12-20T13:21:08;3.10;99.90
21481;DHT22;10902;48.158;8.634;2023-12-20T13:23:54;3.10;99.90
21481;DHT22;10902;48.158;8.634;2023-12-20T13:26:40;3.10;99.90
21481;DHT22;10902;48.158;8.634;2023-12-20T13:29:25;3.20;99.90
21481;DHT22;10902;48.158;8.634;2023-12-20T13:32:12;3.20;99.90
21481;DHT22;10902;48.158;8.634;2023-12-20T13:34:58;3.30;99.90
21481;DHT22;10902;48.158;8.634;2023-12-20T13:37:43;3.30;99.90
21481;DHT22;10902;48.158;8.634;2023-12-20T13:40:29;3.20;99.90
21481;DHT22;10902;48.158;8.634;2023-12-20T13:43:15;3.00;99.90
21481;DHT22;10902;48.158;8.634;2023-12-20T13:46:05;2.90;99.90
21481;DHT22;10902;48.158;8.634;2023-12-20T13:48:51;2.80;99.90
21481;DHT22;10902;48.158;8.634;2023-12-20T13:51:37;2.90;99.90
21481;DHT22;10902;48.158;8.634;2023-12-20T13:54:22;3.00;99.90
21481;DHT22;10902;48.158;8.634;2023-12-20T13:57:08;3.20;99.90
21481;DHT22;10902;48.158;8.634;2023-12-20T13:59:54;3.70;99.90
21481;DHT22;10902;48.158;8.634;2023-12-20T14:02:40;4.20;99.90
21481;DHT22;10902;48.158;8.634;2023-12-20T14:05:26;5.20;99.90
21481;DHT22;10902;48.158;8.634;2023-12-20T14:08:13;6.00;99.90
21481;DHT22;10902;48.158;8.634;2023-12-20T14:10:59;6.20;99.90
21481;DHT22;10902;48.158;8.634;2023-12-20T14:13:46;5.80;99.90
21481;DHT22;10902;48.158;8.634;2023-12-20T14:16:32;4.80;99.90
21481;DHT22;10902;48.158;8.634;2023-12-20T14:19:18;4.00;99.90
21481;DHT22;10902;48.158;8.634;2023-12-20T14:22:04;3.90;99.90
21481;DHT22;10902;48.158;8.634;2023-12-20T14:24:49;3.70;99.90
21481;DHT22;10902;48.158;8.634;2023-12-20T14:27:35;3.60;99.90
21481;DHT22;10902;48.158;8.634;2023-12-20T14:30:20;3.50;99.90
21481;DHT22;10902;48.158;8.634;2023-12-20T14:33:06;3.50;99.90
21481;DHT22;10902;48.158;8.634;2023-12-20T14:35:52;3.50;99.90
21481;DHT22;10902;48.158;8.634;2023-12-20T14:38:37;3.50;99.90
21481;DHT22;10902;48.158;8.634;2023-12-20T14:41:23;3.40;99.90
21481;DHT22;10902;48.158;8.634;2023-12-20T14:44:10;3.50;99.90
21481;DHT22;10902;48.158;8.634;2023-12-20T14:46:55;3.40;99.90
21481;DHT22;10902;48.158;8.634;2023-12-20T14:49:41;3.40;99.90
21481;DHT22;10902;48.158;8.634;2023-12-20T14:52:27;3.40;99.90
21481;DHT22;10902;48.158;8.634;2023-12-20T14:55:13;3.30;99.90
21481;DHT22;10902;48.158;8.634;2023-12-20T14:57:58;3.30;99.90
21481;DHT22;10902;48.158;8.634;2023-12-20T15:00:44;3.30;99.90
21481;DHT22;10902;48.158;8.634;2023-12-20T15:03:30;3.30;99.90
21481;DHT22;10902;48.158;8.634;2023-12-20T15:06:16;3.40;99.90
21481;DHT22;10902;48.158;8.634;2023-12-20T15:09:02;3.50;99.90
21481;DHT22;10902;48.158;8.634;2023-12-20T15:11:50;3.40;99.90
21481;DHT22;10902;48.158;8.634;2023-12-20T15:14:36;3.40;99.90
21481;DHT22;10902;48.158;8.634;2023-12-20T15:17:21;3.40;99.90
21481;DHT22;10902;48.158;8.634;2023-12-20T15:20:07;3.40;99.90
21481;DHT22;10902;48.158;8.634;2023-12-20T15:22:55;3.30;99.90
21481;DHT22;10902;48.158;8.634;2023-12-20T15:25:44;3.30;99.90
21481;DHT22;10902;48.158;8.634;2023-12-20T15:28:30;3.30;99.90
21481;DHT22;10902;48.158;8.634;2023-12-20T15:31:15;3.10;99.90
21481;DHT22;10902;48.158;8.634;2023-12-20T15:34:01;3.10;99.90
21481;DHT22;10902;48.158;8.634;2023-12-20T15:36:46;3.00;99.90
21481;DHT22;10902;48.158;8.634;2023-12-20T15:39:32;3.00;99.90
21481;DHT22;10902;48.158;8.634;2023-12-20T15:42:17;3.00;99.90
21481;DHT22;10902;48.158;8.634;2023-12-20T15:45:04;3.00;99.90
21481;DHT22;10902;48.158;8.634;2023-12-20T15:47:49;2.90;99.90
21481;DHT22;10902;48.158;8.634;2023-12-20T15:50:35;2.90;99.90
21481;DHT22;10902;48.158;8.634;2023-12-20T15:53:20;2.90;99.90
21481;DHT22;10902;48.158;8.634;2023-12-20T15:56:06;2.90;99.90
21481;DHT22;10902;48.158;8.634;2023-12-20T15:58:52;2.90;99.90
21481;DHT22;10902;48.158;8.634;2023-12-20T16:01:39;2.90;99.90
21481;DHT22;10902;48.158;8.634;2023-12-20T16:04:25;2.90;99.90
21481;DHT22;10902;48.158;8.634;2023-12-20T16:07:11;2.90;99.90
21481;DHT22;10902;48.158;8.634;2023-12-20T16:09:56;2.90;99.90
21481;DHT22;10902;48.158;8.634;2023-12-20T16:12:42;2.90;99.90
21481;DHT22;10902;48.158;8.634;2023-12-20T16:15:27;2.80;99.90
21481;DHT22;10902;48.158;8.634;2023-12-20T16:18:13;2.90;99.90
21481;DHT22;10902;48.158;8.634;2023-12-20T16:21:01;2.80;99.90
21481;DHT22;10902;48.158;8.634;2023-12-20T16:23:48;2.80;99.90
21481;DHT22;10902;48.158;8.634;2023-12-20T16:26:33;2.80;99.90
21481;DHT22;10902;48.158;8.634;2023-12-20T16:29:20;2.80;99.90
21481;DHT22;10902;48.158;8.634;2023-12-20T16:32:05;2.80;99.90
21481;DHT22;10902;48.158;8.634;2023-12-20T16:34:51;2.70;99.90
21481;DHT22;10902;48.158;8.634;2023-12-20T16:37:38;2.70;99.90
21481;DHT22;10902;48.158;8.634;2023-12-20T16:40:23;2.70;99.90
21481;DHT22;10902;48.158;8.634;2023-12-20T16:43:11;2.70;99.90
21481;DHT22;10902;48.158;8.634;2023-12-20T16:45:57;2.70;99.90
21481;DHT22;10902;48.158;8.634;2023-12-20T16:48:42;2.70;99.90
21481;DHT22;10902;48.158;8.634;2023-12-20T16:51:28;2.60;99.90
21481;DHT22;10902;48.158;8.634;2023-12-20T16:54:14;2.60;99.90
21481;DHT22;10902;48.158;8.634;2023-12-20T16:57:00;2.60;99.90
21481;DHT22;10902;48.158;8.634;2023-12-20T16:59:45;2.50;99.90
21481;DHT22;10902;48.158;8.634;2023-12-20T17:02:31;2.60;99.90
21481;DHT22;10902;48.158;8.634;2023-12-20T17:05:17;2.50;99.90
21481;DHT22;10902;48.158;8.634;2023-12-20T17:08:03;2.50;99.90
21481;DHT22;10902;48.158;8.634;2023-12-20T17:10:49;2.50;99.90
21481;DHT22;10902;48.158;8.634;2023-12-20T17:13:35;2.60;99.90
21481;DHT22;10902;48.158;8.634;2023-12-20T17:16:20;2.60;99.90
21481;DHT22;10902;48.158;8.634;2023-12-20T17:19:06;2.60;99.90
21481;DHT22;10902;48.158;8.634;2023-12-20T17:21:51;2.70;99.90
21481;DHT22;10902;48.158;8.634;2023-12-20T17:24:37;2.70;99.90
21481;DHT22;10902;48.158;8.634;2023-12-20T17:27:23;2.70;99.90
21481;DHT22;10902;48.158;8.634;2023-12-20T17:30:09;2.70;99.90
21481;DHT22;10902;48.158;8.634;2023-12-20T17:32:54;2.70;99.90
21481;DHT22;10902;48.158;8.634;2023-12-20T17:35:40;2.70;99.90
21481;DHT22;10902;48.158;8.634;2023-12-20T17:38:25;2.70;99.90
21481;DHT22;10902;48.158;8.634;2023-12-20T17:41:11;2.70;99.90
21481;DHT22;10902;48.158;8.634;2023-12-20T17:43:57;2.60;99.90
21481;DHT22;10902;48.158;8.634;2023-12-20T17:46:42;2.70;99.90